LEAM/LEI METAR and TAF weather

Enter ICAO airport designator
Station Type Date Time Source
LEAM METAR 2019/02/16 17:30 UTC NOAA

LEAM 161730Z 07017KT 9999 FEW025 15/07 Q1023


Station Type Date Time Source
LEAM Decoded METAR 2019/02/16 17:30 UTC NOAA

Almeria / Aeropuerto, Spain (LEAM) 36-51N 002-23W 21M
Feb 16, 2019 - 12:30 PM EST / 2019.02.16 1730 UTC
Wind: from the ENE (070 degrees) at 20 MPH (17 KT):0
Visibility: greater than 7 mile(s):0
Sky conditions: mostly clear
Temperature: 59 F (15 C)
Dew Point: 44 F (7 C)
Relative Humidity: 58%
Pressure (altimeter): 30.21 in. Hg (1023 hPa)
ob: LEAM 161730Z 07017KT 9999 FEW025 15/07 Q1023
cycle: 17

Station Type Date Time Source
LEAM TAF 2019/02/16 15:28 UTC NOAA

TAF LEAM 161400Z 1615/1715 06020KT 9999 FEW030 TX19/1615Z TN10/1706Z PROB40
TEMPO 1615/1619 07023G35KT
BECMG 1618/1620 34009KT
BECMG 1708/1710 05014KT


Example: see airport list